sensor_id;sensor_type;location;lat;lon;timestamp;P1;durP1;ratioP1;P2;durP2;ratioP2
62258;SDS011;48241;48.824;10.102;2022-11-20T00:01:39;14.30;;;10.50;;
62258;SDS011;48241;48.824;10.102;2022-11-20T00:04:05;14.60;;;10.48;;
62258;SDS011;48241;48.824;10.102;2022-11-20T00:06:31;15.05;;;10.65;;
62258;SDS011;48241;48.824;10.102;2022-11-20T00:08:57;14.60;;;10.50;;
62258;SDS011;48241;48.824;10.102;2022-11-20T00:11:25;12.65;;;9.88;;
62258;SDS011;48241;48.824;10.102;2022-11-20T00:13:53;15.70;;;9.77;;
62258;SDS011;48241;48.824;10.102;2022-11-20T00:16:22;18.67;;;9.55;;
62258;SDS011;48241;48.824;10.102;2022-11-20T00:18:49;14.45;;;10.13;;
62258;SDS011;48241;48.824;10.102;2022-11-20T00:21:16;13.80;;;9.95;;
62258;SDS011;48241;48.824;10.102;2022-11-20T00:23:46;13.07;;;9.63;;
62258;SDS011;48241;48.824;10.102;2022-11-20T00:26:13;12.05;;;9.13;;
62258;SDS011;48241;48.824;10.102;2022-11-20T00:28:40;12.32;;;9.23;;
62258;SDS011;48241;48.824;10.102;2022-11-20T00:31:08;12.88;;;9.30;;
62258;SDS011;48241;48.824;10.102;2022-11-20T00:33:38;12.77;;;9.00;;
62258;SDS011;48241;48.824;10.102;2022-11-20T00:36:05;11.10;;;9.23;;
62258;SDS011;48241;48.824;10.102;2022-11-20T00:38:38;13.20;;;9.57;;
62258;SDS011;48241;48.824;10.102;2022-11-20T00:41:05;13.57;;;9.52;;
62258;SDS011;48241;48.824;10.102;2022-11-20T00:43:32;14.75;;;9.65;;
62258;SDS011;48241;48.824;10.102;2022-11-20T00:46:05;12.50;;;9.00;;
62258;SDS011;48241;48.824;10.102;2022-11-20T00:48:37;16.00;;;9.52;;
62258;SDS011;48241;48.824;10.102;2022-11-20T00:51:03;12.95;;;9.95;;
62258;SDS011;48241;48.824;10.102;2022-11-20T00:53:29;13.50;;;9.95;;
62258;SDS011;48241;48.824;10.102;2022-11-20T00:55:55;11.75;;;8.77;;
62258;SDS011;48241;48.824;10.102;2022-11-20T00:58:22;13.10;;;9.25;;
62258;SDS011;48241;48.824;10.102;2022-11-20T01:00:49;16.35;;;9.98;;
62258;SDS011;48241;48.824;10.102;2022-11-20T01:03:18;13.00;;;9.48;;
62258;SDS011;48241;48.824;10.102;2022-11-20T01:05:44;12.90;;;9.35;;
62258;SDS011;48241;48.824;10.102;2022-11-20T01:08:10;12.40;;;9.23;;
62258;SDS011;48241;48.824;10.102;2022-11-20T01:10:35;15.63;;;8.90;;
62258;SDS011;48241;48.824;10.102;2022-11-20T01:13:01;14.82;;;8.88;;
62258;SDS011;48241;48.824;10.102;2022-11-20T01:15:45;14.13;;;9.30;;
62258;SDS011;48241;48.824;10.102;2022-11-20T01:18:11;13.30;;;8.60;;
62258;SDS011;48241;48.824;10.102;2022-11-20T01:20:36;14.18;;;8.60;;
62258;SDS011;48241;48.824;10.102;2022-11-20T01:23:02;12.35;;;7.97;;
62258;SDS011;48241;48.824;10.102;2022-11-20T01:25:28;11.50;;;8.23;;
62258;SDS011;48241;48.824;10.102;2022-11-20T01:27:54;10.85;;;7.85;;
62258;SDS011;48241;48.824;10.102;2022-11-20T01:30:20;11.45;;;8.35;;
62258;SDS011;48241;48.824;10.102;2022-11-20T01:32:45;11.82;;;8.68;;
62258;SDS011;48241;48.824;10.102;2022-11-20T01:35:11;11.27;;;7.18;;
62258;SDS011;48241;48.824;10.102;2022-11-20T01:37:36;10.65;;;8.02;;
62258;SDS011;48241;48.824;10.102;2022-11-20T01:40:02;9.68;;;7.32;;
62258;SDS011;48241;48.824;10.102;2022-11-20T01:42:28;11.18;;;7.57;;
62258;SDS011;48241;48.824;10.102;2022-11-20T01:48:28;9.18;;;7.00;;
62258;SDS011;48241;48.824;10.102;2022-11-20T01:50:58;9.18;;;6.85;;
62258;SDS011;48241;48.824;10.102;2022-11-20T01:53:26;9.93;;;6.68;;
62258;SDS011;48241;48.824;10.102;2022-11-20T01:55:56;11.15;;;7.13;;
62258;SDS011;48241;48.824;10.102;2022-11-20T01:58:26;7.93;;;6.50;;
62258;SDS011;48241;48.824;10.102;2022-11-20T02:00:55;9.05;;;6.97;;
62258;SDS011;48241;48.824;10.102;2022-11-20T02:03:21;8.63;;;6.05;;
62258;SDS011;48241;48.824;10.102;2022-11-20T02:08:50;7.25;;;5.65;;
62258;SDS011;48241;48.824;10.102;2022-11-20T02:11:17;8.38;;;5.90;;
62258;SDS011;48241;48.824;10.102;2022-11-20T02:13:43;6.93;;;6.13;;
62258;SDS011;48241;48.824;10.102;2022-11-20T02:16:10;8.02;;;6.15;;
62258;SDS011;48241;48.824;10.102;2022-11-20T02:18:48;8.73;;;6.13;;
62258;SDS011;48241;48.824;10.102;2022-11-20T02:21:20;11.70;;;5.70;;
62258;SDS011;48241;48.824;10.102;2022-11-20T02:24:06;8.30;;;6.10;;
62258;SDS011;48241;48.824;10.102;2022-11-20T02:29:19;8.15;;;5.97;;
62258;SDS011;48241;48.824;10.102;2022-11-20T02:31:57;7.72;;;5.85;;
62258;SDS011;48241;48.824;10.102;2022-11-20T02:34:24;8.68;;;5.05;;
62258;SDS011;48241;48.824;10.102;2022-11-20T02:36:49;8.05;;;5.22;;
62258;SDS011;48241;48.824;10.102;2022-11-20T02:39:17;7.05;;;4.13;;
62258;SDS011;48241;48.824;10.102;2022-11-20T02:41:44;6.00;;;4.50;;
62258;SDS011;48241;48.824;10.102;2022-11-20T02:44:09;6.90;;;4.57;;
62258;SDS011;48241;48.824;10.102;2022-11-20T02:46:35;5.63;;;4.28;;
62258;SDS011;48241;48.824;10.102;2022-11-20T02:49:02;6.50;;;3.90;;
62258;SDS011;48241;48.824;10.102;2022-11-20T02:51:29;4.57;;;3.88;;
62258;SDS011;48241;48.824;10.102;2022-11-20T02:53:55;4.53;;;3.50;;
62258;SDS011;48241;48.824;10.102;2022-11-20T02:56:21;5.38;;;3.63;;
62258;SDS011;48241;48.824;10.102;2022-11-20T02:58:47;4.55;;;3.47;;
62258;SDS011;48241;48.824;10.102;2022-11-20T03:01:12;4.88;;;3.58;;
62258;SDS011;48241;48.824;10.102;2022-11-20T03:03:38;6.10;;;3.50;;
62258;SDS011;48241;48.824;10.102;2022-11-20T03:06:03;5.32;;;3.30;;
62258;SDS011;48241;48.824;10.102;2022-11-20T03:08:29;5.97;;;3.10;;
62258;SDS011;48241;48.824;10.102;2022-11-20T03:10:55;6.75;;;2.83;;
62258;SDS011;48241;48.824;10.102;2022-11-20T03:13:20;4.10;;;3.10;;
62258;SDS011;48241;48.824;10.102;2022-11-20T03:15:46;4.72;;;3.08;;
62258;SDS011;48241;48.824;10.102;2022-11-20T03:18:11;3.92;;;2.92;;
62258;SDS011;48241;48.824;10.102;2022-11-20T03:20:38;4.13;;;2.80;;
62258;SDS011;48241;48.824;10.102;2022-11-20T03:23:04;4.93;;;2.67;;
62258;SDS011;48241;48.824;10.102;2022-11-20T03:25:29;4.43;;;3.15;;
62258;SDS011;48241;48.824;10.102;2022-11-20T03:27:55;4.05;;;2.63;;
62258;SDS011;48241;48.824;10.102;2022-11-20T03:30:21;3.25;;;2.58;;
62258;SDS011;48241;48.824;10.102;2022-11-20T03:32:47;3.72;;;2.45;;
62258;SDS011;48241;48.824;10.102;2022-11-20T03:35:12;4.07;;;2.70;;
62258;SDS011;48241;48.824;10.102;2022-11-20T03:37:38;3.08;;;2.38;;
62258;SDS011;48241;48.824;10.102;2022-11-20T03:40:04;4.45;;;2.65;;
62258;SDS011;48241;48.824;10.102;2022-11-20T03:42:30;4.18;;;2.95;;
62258;SDS011;48241;48.824;10.102;2022-11-20T03:45:11;6.07;;;2.92;;
62258;SDS011;48241;48.824;10.102;2022-11-20T03:47:40;3.75;;;3.42;;
62258;SDS011;48241;48.824;10.102;2022-11-20T03:50:06;4.60;;;3.42;;
62258;SDS011;48241;48.824;10.102;2022-11-20T03:52:32;5.57;;;3.50;;
62258;SDS011;48241;48.824;10.102;2022-11-20T03:54:57;3.95;;;3.25;;
62258;SDS011;48241;48.824;10.102;2022-11-20T03:57:23;4.82;;;3.30;;
62258;SDS011;48241;48.824;10.102;2022-11-20T03:59:49;4.88;;;3.30;;
62258;SDS011;48241;48.824;10.102;2022-11-20T04:02:14;4.75;;;3.53;;
62258;SDS011;48241;48.824;10.102;2022-11-20T04:04:40;6.43;;;3.30;;
62258;SDS011;48241;48.824;10.102;2022-11-20T04:07:05;4.88;;;3.40;;
62258;SDS011;48241;48.824;10.102;2022-11-20T04:09:31;5.05;;;3.20;;
62258;SDS011;48241;48.824;10.102;2022-11-20T04:11:56;5.38;;;3.60;;
62258;SDS011;48241;48.824;10.102;2022-11-20T04:14:22;2.97;;;2.63;;
62258;SDS011;48241;48.824;10.102;2022-11-20T04:16:47;3.53;;;2.88;;
62258;SDS011;48241;48.824;10.102;2022-11-20T04:19:14;3.20;;;2.40;;
62258;SDS011;48241;48.824;10.102;2022-11-20T04:21:41;3.10;;;2.15;;
62258;SDS011;48241;48.824;10.102;2022-11-20T04:24:07;2.58;;;2.00;;
62258;SDS011;48241;48.824;10.102;2022-11-20T04:26:33;3.45;;;1.85;;
62258;SDS011;48241;48.824;10.102;2022-11-20T04:28:59;5.20;;;2.30;;
62258;SDS011;48241;48.824;10.102;2022-11-20T04:31:30;5.30;;;2.30;;
62258;SDS011;48241;48.824;10.102;2022-11-20T04:34:00;3.10;;;2.22;;
62258;SDS011;48241;48.824;10.102;2022-11-20T04:36:26;5.22;;;2.70;;
62258;SDS011;48241;48.824;10.102;2022-11-20T04:38:54;3.10;;;2.47;;
62258;SDS011;48241;48.824;10.102;2022-11-20T04:41:24;3.97;;;2.25;;
62258;SDS011;48241;48.824;10.102;2022-11-20T04:43:53;2.67;;;2.05;;
62258;SDS011;48241;48.824;10.102;2022-11-20T04:46:24;3.35;;;2.20;;
62258;SDS011;48241;48.824;10.102;2022-11-20T04:48:50;3.35;;;2.45;;
62258;SDS011;48241;48.824;10.102;2022-11-20T04:51:16;3.70;;;2.30;;
62258;SDS011;48241;48.824;10.102;2022-11-20T04:53:41;5.25;;;2.40;;
62258;SDS011;48241;48.824;10.102;2022-11-20T04:56:08;4.57;;;2.35;;
62258;SDS011;48241;48.824;10.102;2022-11-20T04:58:36;5.63;;;2.53;;
62258;SDS011;48241;48.824;10.102;2022-11-20T05:01:06;2.53;;;1.92;;
62258;SDS011;48241;48.824;10.102;2022-11-20T05:03:37;3.90;;;2.28;;
62258;SDS011;48241;48.824;10.102;2022-11-20T05:06:04;2.83;;;2.35;;
62258;SDS011;48241;48.824;10.102;2022-11-20T05:08:31;3.15;;;1.90;;
62258;SDS011;48241;48.824;10.102;2022-11-20T05:11:01;3.00;;;2.15;;
62258;SDS011;48241;48.824;10.102;2022-11-20T05:13:26;2.85;;;2.28;;
62258;SDS011;48241;48.824;10.102;2022-11-20T05:15:52;4.72;;;2.47;;
62258;SDS011;48241;48.824;10.102;2022-11-20T05:18:18;4.07;;;2.72;;
62258;SDS011;48241;48.824;10.102;2022-11-20T05:20:43;4.40;;;2.45;;
62258;SDS011;48241;48.824;10.102;2022-11-20T05:23:09;3.40;;;2.25;;
62258;SDS011;48241;48.824;10.102;2022-11-20T05:25:34;3.55;;;1.98;;
62258;SDS011;48241;48.824;10.102;2022-11-20T05:28:00;2.47;;;2.10;;
62258;SDS011;48241;48.824;10.102;2022-11-20T05:30:25;2.83;;;1.90;;
62258;SDS011;48241;48.824;10.102;2022-11-20T05:32:51;3.58;;;1.98;;
62258;SDS011;48241;48.824;10.102;2022-11-20T05:35:16;5.13;;;2.05;;
62258;SDS011;48241;48.824;10.102;2022-11-20T05:37:42;4.53;;;2.47;;
62258;SDS011;48241;48.824;10.102;2022-11-20T05:40:08;2.63;;;2.17;;
62258;SDS011;48241;48.824;10.102;2022-11-20T05:42:34;4.10;;;2.70;;
62258;SDS011;48241;48.824;10.102;2022-11-20T05:45:01;3.97;;;2.80;;
62258;SDS011;48241;48.824;10.102;2022-11-20T05:47:31;4.22;;;2.50;;
62258;SDS011;48241;48.824;10.102;2022-11-20T05:49:57;3.63;;;2.90;;
62258;SDS011;48241;48.824;10.102;2022-11-20T05:52:23;5.22;;;3.08;;
62258;SDS011;48241;48.824;10.102;2022-11-20T05:54:49;4.50;;;2.65;;
62258;SDS011;48241;48.824;10.102;2022-11-20T05:57:15;3.45;;;2.70;;
62258;SDS011;48241;48.824;10.102;2022-11-20T05:59:41;4.10;;;2.70;;
62258;SDS011;48241;48.824;10.102;2022-11-20T06:02:08;4.32;;;2.38;;
62258;SDS011;48241;48.824;10.102;2022-11-20T06:04:33;3.53;;;2.58;;
62258;SDS011;48241;48.824;10.102;2022-11-20T06:06:59;4.28;;;3.25;;
62258;SDS011;48241;48.824;10.102;2022-11-20T06:09:24;3.33;;;2.70;;
62258;SDS011;48241;48.824;10.102;2022-11-20T06:11:50;4.68;;;3.20;;
62258;SDS011;48241;48.824;10.102;2022-11-20T06:14:15;3.80;;;3.20;;
62258;SDS011;48241;48.824;10.102;2022-11-20T06:16:41;3.05;;;2.75;;
62258;SDS011;48241;48.824;10.102;2022-11-20T06:19:06;4.38;;;3.17;;
62258;SDS011;48241;48.824;10.102;2022-11-20T06:21:32;4.85;;;2.72;;
62258;SDS011;48241;48.824;10.102;2022-11-20T06:23:57;4.97;;;3.08;;
62258;SDS011;48241;48.824;10.102;2022-11-20T06:26:24;4.35;;;3.08;;
62258;SDS011;48241;48.824;10.102;2022-11-20T06:28:51;3.45;;;2.80;;
62258;SDS011;48241;48.824;10.102;2022-11-20T06:31:18;3.75;;;2.88;;
62258;SDS011;48241;48.824;10.102;2022-11-20T06:33:49;3.35;;;2.80;;
62258;SDS011;48241;48.824;10.102;2022-11-20T06:36:16;3.30;;;2.80;;
62258;SDS011;48241;48.824;10.102;2022-11-20T06:38:43;3.90;;;2.90;;
62258;SDS011;48241;48.824;10.102;2022-11-20T06:41:14;3.92;;;2.47;;
62258;SDS011;48241;48.824;10.102;2022-11-20T06:43:41;5.78;;;2.95;;
62258;SDS011;48241;48.824;10.102;2022-11-20T06:46:08;3.58;;;2.10;;
62258;SDS011;48241;48.824;10.102;2022-11-20T06:48:35;3.28;;;2.47;;
62258;SDS011;48241;48.824;10.102;2022-11-20T06:51:03;3.92;;;2.10;;
62258;SDS011;48241;48.824;10.102;2022-11-20T06:53:29;2.53;;;2.03;;
62258;SDS011;48241;48.824;10.102;2022-11-20T06:55:55;3.25;;;2.05;;
62258;SDS011;48241;48.824;10.102;2022-11-20T06:58:22;3.10;;;1.90;;
62258;SDS011;48241;48.824;10.102;2022-11-20T07:00:48;2.75;;;1.98;;
62258;SDS011;48241;48.824;10.102;2022-11-20T07:03:14;4.75;;;2.30;;
62258;SDS011;48241;48.824;10.102;2022-11-20T07:05:39;2.30;;;1.92;;
62258;SDS011;48241;48.824;10.102;2022-11-20T07:08:05;2.15;;;1.83;;
62258;SDS011;48241;48.824;10.102;2022-11-20T07:10:31;2.67;;;2.00;;
62258;SDS011;48241;48.824;10.102;2022-11-20T07:12:57;2.28;;;1.90;;
62258;SDS011;48241;48.824;10.102;2022-11-20T07:15:24;2.00;;;1.80;;
62258;SDS011;48241;48.824;10.102;2022-11-20T07:17:50;3.03;;;1.80;;
62258;SDS011;48241;48.824;10.102;2022-11-20T07:20:16;3.28;;;1.83;;
62258;SDS011;48241;48.824;10.102;2022-11-20T07:22:44;3.28;;;1.80;;
62258;SDS011;48241;48.824;10.102;2022-11-20T07:28:39;3.63;;;1.60;;
62258;SDS011;48241;48.824;10.102;2022-11-20T07:31:08;2.58;;;1.50;;
62258;SDS011;48241;48.824;10.102;2022-11-20T07:33:34;3.65;;;1.60;;
62258;SDS011;48241;48.824;10.102;2022-11-20T07:36:17;2.30;;;1.60;;
62258;SDS011;48241;48.824;10.102;2022-11-20T07:38:46;2.85;;;1.60;;
62258;SDS011;48241;48.824;10.102;2022-11-20T07:41:14;2.10;;;1.48;;
62258;SDS011;48241;48.824;10.102;2022-11-20T07:43:48;1.40;;;1.30;;
62258;SDS011;48241;48.824;10.102;2022-11-20T07:46:14;2.65;;;1.40;;
62258;SDS011;48241;48.824;10.102;2022-11-20T07:48:39;1.27;;;1.17;;
62258;SDS011;48241;48.824;10.102;2022-11-20T07:51:08;2.13;;;1.60;;
62258;SDS011;48241;48.824;10.102;2022-11-20T07:53:33;3.95;;;2.35;;
62258;SDS011;48241;48.824;10.102;2022-11-20T07:56:00;2.47;;;1.52;;
62258;SDS011;48241;48.824;10.102;2022-11-20T07:58:29;1.80;;;1.30;;
62258;SDS011;48241;48.824;10.102;2022-11-20T08:03:31;1.50;;;1.40;;
62258;SDS011;48241;48.824;10.102;2022-11-20T08:06:00;3.45;;;2.33;;
62258;SDS011;48241;48.824;10.102;2022-11-20T08:08:29;2.38;;;1.40;;
62258;SDS011;48241;48.824;10.102;2022-11-20T08:11:00;2.88;;;1.55;;
62258;SDS011;48241;48.824;10.102;2022-11-20T08:13:44;2.85;;;1.30;;
62258;SDS011;48241;48.824;10.102;2022-11-20T08:16:29;2.22;;;1.40;;
62258;SDS011;48241;48.824;10.102;2022-11-20T08:18:57;3.20;;;1.40;;
62258;SDS011;48241;48.824;10.102;2022-11-20T08:21:26;1.48;;;1.10;;
62258;SDS011;48241;48.824;10.102;2022-11-20T08:23:55;1.42;;;1.30;;
62258;SDS011;48241;48.824;10.102;2022-11-20T08:26:24;1.30;;;1.13;;
62258;SDS011;48241;48.824;10.102;2022-11-20T08:28:54;1.35;;;1.25;;
62258;SDS011;48241;48.824;10.102;2022-11-20T08:31:23;1.60;;;1.20;;
62258;SDS011;48241;48.824;10.102;2022-11-20T08:33:52;1.75;;;1.25;;
62258;SDS011;48241;48.824;10.102;2022-11-20T08:36:21;1.40;;;1.27;;
62258;SDS011;48241;48.824;10.102;2022-11-20T08:38:51;1.35;;;1.20;;
62258;SDS011;48241;48.824;10.102;2022-11-20T08:41:19;0.90;;;0.90;;
62258;SDS011;48241;48.824;10.102;2022-11-20T08:44:01;1.50;;;1.02;;
62258;SDS011;48241;48.824;10.102;2022-11-20T08:46:32;1.35;;;1.13;;
62258;SDS011;48241;48.824;10.102;2022-11-20T08:49:01;1.95;;;1.38;;
62258;SDS011;48241;48.824;10.102;2022-11-20T08:51:31;1.73;;;1.17;;
62258;SDS011;48241;48.824;10.102;2022-11-20T08:53:57;2.00;;;1.00;;
62258;SDS011;48241;48.824;10.102;2022-11-20T08:56:23;1.23;;;1.10;;
62258;SDS011;48241;48.824;10.102;2022-11-20T08:58:49;1.33;;;1.00;;
62258;SDS011;48241;48.824;10.102;2022-11-20T09:01:17;2.22;;;1.00;;
62258;SDS011;48241;48.824;10.102;2022-11-20T09:03:43;1.65;;;0.95;;
62258;SDS011;48241;48.824;10.102;2022-11-20T09:06:09;1.25;;;1.00;;
62258;SDS011;48241;48.824;10.102;2022-11-20T09:08:35;2.10;;;1.10;;
62258;SDS011;48241;48.824;10.102;2022-11-20T09:11:03;1.25;;;0.90;;
62258;SDS011;48241;48.824;10.102;2022-11-20T09:13:30;2.05;;;1.00;;
62258;SDS011;48241;48.824;10.102;2022-11-20T09:15:57;1.08;;;0.98;;
62258;SDS011;48241;48.824;10.102;2022-11-20T09:18:25;1.55;;;0.95;;
62258;SDS011;48241;48.824;10.102;2022-11-20T09:20:58;1.30;;;1.05;;
62258;SDS011;48241;48.824;10.102;2022-11-20T09:23:25;1.67;;;1.10;;
62258;SDS011;48241;48.824;10.102;2022-11-20T09:25:52;1.30;;;1.00;;
62258;SDS011;48241;48.824;10.102;2022-11-20T09:28:24;1.20;;;0.90;;
62258;SDS011;48241;48.824;10.102;2022-11-20T09:30:50;2.80;;;1.17;;
62258;SDS011;48241;48.824;10.102;2022-11-20T09:33:16;1.88;;;1.15;;
62258;SDS011;48241;48.824;10.102;2022-11-20T09:35:42;2.35;;;1.10;;
62258;SDS011;48241;48.824;10.102;2022-11-20T09:38:09;2.38;;;1.08;;
62258;SDS011;48241;48.824;10.102;2022-11-20T09:40:40;2.63;;;1.23;;
62258;SDS011;48241;48.824;10.102;2022-11-20T09:56:41;1.92;;;1.30;;
62258;SDS011;48241;48.824;10.102;2022-11-20T10:02:41;1.58;;;0.90;;
62258;SDS011;48241;48.824;10.102;2022-11-20T10:07:47;1.45;;;1.13;;
62258;SDS011;48241;48.824;10.102;2022-11-20T10:13:10;1.52;;;1.10;;
62258;SDS011;48241;48.824;10.102;2022-11-20T10:18:44;1.60;;;1.08;;
62258;SDS011;48241;48.824;10.102;2022-11-20T10:27:10;2.20;;;1.30;;
62258;SDS011;48241;48.824;10.102;2022-11-20T10:30:15;2.13;;;1.00;;
62258;SDS011;48241;48.824;10.102;2022-11-20T10:32:50;1.30;;;1.10;;
62258;SDS011;48241;48.824;10.102;2022-11-20T10:35:33;1.13;;;0.98;;
62258;SDS011;48241;48.824;10.102;2022-11-20T10:38:21;1.30;;;0.98;;
62258;SDS011;48241;48.824;10.102;2022-11-20T10:40:57;1.92;;;1.00;;
62258;SDS011;48241;48.824;10.102;2022-11-20T10:43:45;1.17;;;1.05;;
62258;SDS011;48241;48.824;10.102;2022-11-20T10:46:20;1.98;;;1.35;;
62258;SDS011;48241;48.824;10.102;2022-11-20T10:48:47;1.38;;;1.27;;
62258;SDS011;48241;48.824;10.102;2022-11-20T10:54:17;1.10;;;1.00;;
62258;SDS011;48241;48.824;10.102;2022-11-20T10:57:00;2.25;;;1.23;;
62258;SDS011;48241;48.824;10.102;2022-11-20T11:02:31;1.95;;;1.20;;
62258;SDS011;48241;48.824;10.102;2022-11-20T11:05:12;1.67;;;1.40;;
62258;SDS011;48241;48.824;10.102;2022-11-20T11:07:54;2.75;;;1.75;;
62258;SDS011;48241;48.824;10.102;2022-11-20T11:13:21;3.03;;;1.70;;
62258;SDS011;48241;48.824;10.102;2022-11-20T11:15:48;2.47;;;1.75;;
62258;SDS011;48241;48.824;10.102;2022-11-20T11:18:24;2.85;;;2.50;;
62258;SDS011;48241;48.824;10.102;2022-11-20T11:20:57;2.40;;;2.08;;
62258;SDS011;48241;48.824;10.102;2022-11-20T11:23:30;2.30;;;2.00;;
62258;SDS011;48241;48.824;10.102;2022-11-20T11:26:00;1.50;;;1.23;;
62258;SDS011;48241;48.824;10.102;2022-11-20T11:28:27;1.90;;;1.13;;
62258;SDS011;48241;48.824;10.102;2022-11-20T11:30:53;1.55;;;0.80;;
62258;SDS011;48241;48.824;10.102;2022-11-20T11:33:23;1.02;;;0.90;;
62258;SDS011;48241;48.824;10.102;2022-11-20T11:35:54;0.80;;;0.80;;
62258;SDS011;48241;48.824;10.102;2022-11-20T11:38:38;2.45;;;1.00;;
62258;SDS011;48241;48.824;10.102;2022-11-20T11:41:06;1.00;;;0.90;;
62258;SDS011;48241;48.824;10.102;2022-11-20T11:43:35;3.97;;;1.27;;
62258;SDS011;48241;48.824;10.102;2022-11-20T11:56:57;1.33;;;1.02;;
62258;SDS011;48241;48.824;10.102;2022-11-20T11:59:27;1.02;;;0.95;;
62258;SDS011;48241;48.824;10.102;2022-11-20T12:02:10;2.33;;;0.93;;
62258;SDS011;48241;48.824;10.102;2022-11-20T12:04:57;1.90;;;0.90;;
62258;SDS011;48241;48.824;10.102;2022-11-20T12:07:41;0.73;;;0.70;;
62258;SDS011;48241;48.824;10.102;2022-11-20T12:10:14;1.40;;;1.02;;
62258;SDS011;48241;48.824;10.102;2022-11-20T12:13:09;1.02;;;0.90;;
62258;SDS011;48241;48.824;10.102;2022-11-20T12:15:47;0.80;;;0.75;;
62258;SDS011;48241;48.824;10.102;2022-11-20T12:18:20;0.70;;;0.70;;
62258;SDS011;48241;48.824;10.102;2022-11-20T12:20:57;1.08;;;0.77;;
62258;SDS011;48241;48.824;10.102;2022-11-20T12:23:35;1.40;;;1.05;;
62258;SDS011;48241;48.824;10.102;2022-11-20T12:26:19;1.10;;;1.00;;
62258;SDS011;48241;48.824;10.102;2022-11-20T12:29:18;2.70;;;1.20;;
62258;SDS011;48241;48.824;10.102;2022-11-20T12:31:59;1.40;;;1.13;;
62258;SDS011;48241;48.824;10.102;2022-11-20T12:42:53;2.85;;;1.10;;
62258;SDS011;48241;48.824;10.102;2022-11-20T12:45:57;1.27;;;1.10;;
62258;SDS011;48241;48.824;10.102;2022-11-20T12:53:55;1.33;;;1.23;;
62258;SDS011;48241;48.824;10.102;2022-11-20T12:59:19;2.47;;;1.27;;
62258;SDS011;48241;48.824;10.102;2022-11-20T13:01:58;2.88;;;1.65;;
62258;SDS011;48241;48.824;10.102;2022-11-20T13:04:55;5.03;;;2.20;;
62258;SDS011;48241;48.824;10.102;2022-11-20T13:07:40;2.30;;;1.45;;
62258;SDS011;48241;48.824;10.102;2022-11-20T13:10:10;2.30;;;1.42;;
62258;SDS011;48241;48.824;10.102;2022-11-20T13:12:44;2.05;;;1.40;;
62258;SDS011;48241;48.824;10.102;2022-11-20T13:15:22;2.20;;;1.30;;
62258;SDS011;48241;48.824;10.102;2022-11-20T13:18:11;3.65;;;1.63;;
62258;SDS011;48241;48.824;10.102;2022-11-20T13:20:41;4.20;;;1.50;;
62258;SDS011;48241;48.824;10.102;2022-11-20T13:23:07;3.72;;;1.45;;
62258;SDS011;48241;48.824;10.102;2022-11-20T13:25:34;3.20;;;1.40;;
62258;SDS011;48241;48.824;10.102;2022-11-20T13:30:30;2.63;;;1.30;;
62258;SDS011;48241;48.824;10.102;2022-11-20T13:36:05;3.70;;;1.10;;
62258;SDS011;48241;48.824;10.102;2022-11-20T13:38:49;4.68;;;1.27;;
62258;SDS011;48241;48.824;10.102;2022-11-20T13:41:26;3.38;;;1.40;;
62258;SDS011;48241;48.824;10.102;2022-11-20T13:43:54;1.98;;;1.00;;
62258;SDS011;48241;48.824;10.102;2022-11-20T13:46:38;3.45;;;1.10;;
62258;SDS011;48241;48.824;10.102;2022-11-20T13:49:26;2.17;;;1.30;;
62258;SDS011;48241;48.824;10.102;2022-11-20T13:52:30;1.70;;;1.23;;
62258;SDS011;48241;48.824;10.102;2022-11-20T14:00:56;1.92;;;1.30;;
62258;SDS011;48241;48.824;10.102;2022-11-20T14:03:25;2.42;;;1.15;;
62258;SDS011;48241;48.824;10.102;2022-11-20T14:05:56;2.60;;;1.30;;
62258;SDS011;48241;48.824;10.102;2022-11-20T14:08:41;3.03;;;2.13;;
62258;SDS011;48241;48.824;10.102;2022-11-20T14:14:01;3.70;;;1.13;;
62258;SDS011;48241;48.824;10.102;2022-11-20T14:16:30;1.40;;;1.20;;
62258;SDS011;48241;48.824;10.102;2022-11-20T14:18:58;2.40;;;0.90;;
62258;SDS011;48241;48.824;10.102;2022-11-20T14:21:45;2.33;;;1.10;;
62258;SDS011;48241;48.824;10.102;2022-11-20T14:24:13;2.05;;;1.02;;
62258;SDS011;48241;48.824;10.102;2022-11-20T14:26:43;3.78;;;1.40;;
62258;SDS011;48241;48.824;10.102;2022-11-20T14:29:13;3.10;;;1.25;;
62258;SDS011;48241;48.824;10.102;2022-11-20T14:42:23;2.45;;;1.20;;
62258;SDS011;48241;48.824;10.102;2022-11-20T14:44:51;3.20;;;1.27;;
62258;SDS011;48241;48.824;10.102;2022-11-20T14:47:29;2.55;;;1.23;;
62258;SDS011;48241;48.824;10.102;2022-11-20T14:49:56;2.53;;;1.20;;
62258;SDS011;48241;48.824;10.102;2022-11-20T14:52:24;2.92;;;1.13;;
62258;SDS011;48241;48.824;10.102;2022-11-20T14:54:53;2.40;;;1.17;;
62258;SDS011;48241;48.824;10.102;2022-11-20T15:02:45;2.88;;;0.80;;
62258;SDS011;48241;48.824;10.102;2022-11-20T15:05:13;3.13;;;0.98;;
62258;SDS011;48241;48.824;10.102;2022-11-20T15:07:40;1.90;;;0.88;;
62258;SDS011;48241;48.824;10.102;2022-11-20T15:10:19;2.85;;;1.45;;
62258;SDS011;48241;48.824;10.102;2022-11-20T15:12:48;1.70;;;0.70;;
62258;SDS011;48241;48.824;10.102;2022-11-20T15:18:15;1.95;;;0.75;;
62258;SDS011;48241;48.824;10.102;2022-11-20T15:20:43;1.25;;;0.80;;
62258;SDS011;48241;48.824;10.102;2022-11-20T15:23:13;3.08;;;0.90;;
62258;SDS011;48241;48.824;10.102;2022-11-20T15:25:46;1.13;;;0.70;;
62258;SDS011;48241;48.824;10.102;2022-11-20T15:28:16;2.08;;;0.88;;
62258;SDS011;48241;48.824;10.102;2022-11-20T15:31:05;1.60;;;0.77;;
62258;SDS011;48241;48.824;10.102;2022-11-20T15:33:32;0.95;;;0.63;;
62258;SDS011;48241;48.824;10.102;2022-11-20T15:35:58;2.33;;;1.00;;
62258;SDS011;48241;48.824;10.102;2022-11-20T15:38:24;1.60;;;0.90;;
62258;SDS011;48241;48.824;10.102;2022-11-20T15:40:50;2.67;;;0.80;;
62258;SDS011;48241;48.824;10.102;2022-11-20T15:43:15;1.48;;;0.80;;
62258;SDS011;48241;48.824;10.102;2022-11-20T15:45:45;1.60;;;0.80;;
62258;SDS011;48241;48.824;10.102;2022-11-20T15:50:46;3.00;;;0.88;;
62258;SDS011;48241;48.824;10.102;2022-11-20T15:53:17;1.67;;;1.00;;
62258;SDS011;48241;48.824;10.102;2022-11-20T15:55:43;2.17;;;0.90;;
62258;SDS011;48241;48.824;10.102;2022-11-20T15:58:09;1.08;;;0.80;;
62258;SDS011;48241;48.824;10.102;2022-11-20T16:00:35;1.58;;;0.73;;
62258;SDS011;48241;48.824;10.102;2022-11-20T16:03:03;1.80;;;0.82;;
62258;SDS011;48241;48.824;10.102;2022-11-20T16:05:28;2.15;;;0.80;;
62258;SDS011;48241;48.824;10.102;2022-11-20T16:07:54;3.55;;;0.80;;
62258;SDS011;48241;48.824;10.102;2022-11-20T16:10:20;2.85;;;0.90;;
62258;SDS011;48241;48.824;10.102;2022-11-20T16:12:46;2.70;;;0.90;;
62258;SDS011;48241;48.824;10.102;2022-11-20T16:15:34;2.10;;;0.73;;
62258;SDS011;48241;48.824;10.102;2022-11-20T16:18:12;1.88;;;0.70;;
62258;SDS011;48241;48.824;10.102;2022-11-20T16:20:39;2.55;;;0.90;;
62258;SDS011;48241;48.824;10.102;2022-11-20T16:23:05;1.25;;;0.60;;
62258;SDS011;48241;48.824;10.102;2022-11-20T16:25:32;1.00;;;0.80;;
62258;SDS011;48241;48.824;10.102;2022-11-20T16:27:58;3.97;;;1.50;;
62258;SDS011;48241;48.824;10.102;2022-11-20T16:30:24;2.20;;;1.30;;
62258;SDS011;48241;48.824;10.102;2022-11-20T16:32:49;1.33;;;0.80;;
62258;SDS011;48241;48.824;10.102;2022-11-20T16:35:15;1.88;;;0.80;;
62258;SDS011;48241;48.824;10.102;2022-11-20T16:37:41;4.20;;;1.10;;
62258;SDS011;48241;48.824;10.102;2022-11-20T16:40:08;2.08;;;0.80;;
62258;SDS011;48241;48.824;10.102;2022-11-20T16:42:35;1.77;;;0.90;;
62258;SDS011;48241;48.824;10.102;2022-11-20T16:45:01;2.63;;;0.77;;
62258;SDS011;48241;48.824;10.102;2022-11-20T16:47:28;1.92;;;1.00;;